Time;durP1;ratioP1;P1;durP2;ratioP2;P2;SDS_P1;SDS_P2;PMS_P1;PMS_P2;Temp;Humidity;BMP_temperature;BMP_pressure;BME280_temperature;BME280_humidity;BME280_pressure;Samples;Min_cycle;Max_cycle;Signal;HPM_P1;HPM_P2
2022/02/05 00:00:54;;;;;;;8.20;4.00;;;4.60;99.90;;;;;;4915843;29;20191;-80
2022/02/05 00:08:36;;;;;;;4.00;3.83;;;4.30;99.90;;;;;;4936864;29;20277;-83
2022/02/05 00:38:17;;;;;;;5.55;4.95;;;4.30;99.90;;;;;;4934482;29;20398;-83
2022/02/05 00:43:58;;;;;;;5.43;5.22;;;4.30;99.90;;;;;;4932140;29;20271;-83
2022/02/05 00:46:27;;;;;;;6.50;5.93;;;4.10;99.90;;;;;;4917006;29;20219;-83
2022/02/05 00:48:53;;;;;;;5.32;4.75;;;3.70;99.90;;;;;;4925916;29;20242;-84
2022/02/05 00:51:25;;;;;;;5.73;5.43;;;4.10;99.90;;;;;;4933919;29;20272;-83
2022/02/05 00:54:03;;;;;;;4.97;4.78;;;4.20;99.90;;;;;;4931135;29;20415;-82
2022/02/05 00:59:10;;;;;;;3.78;3.55;;;4.30;99.90;;;;;;4932161;29;20194;-83
2022/02/05 01:01:35;;;;;;;5.17;4.77;;;4.00;99.90;;;;;;4948688;29;20202;-84
2022/02/05 01:04:01;;;;;;;4.77;4.33;;;3.80;99.90;;;;;;4915104;29;20431;-84
2022/02/05 01:06:27;;;;;;;5.37;4.80;;;3.70;99.90;;;;;;4930815;29;20210;-83
2022/02/05 01:08:53;;;;;;;5.50;4.60;;;3.60;99.90;;;;;;4915082;29;20207;-84
2022/02/05 01:11:18;;;;;;;5.00;4.63;;;4.10;99.90;;;;;;4930552;29;20195;-84
2022/02/05 01:13:44;;;;;;;5.73;4.50;;;3.80;99.90;;;;;;4932398;29;20536;-84
2022/02/05 01:16:21;;;;;;;4.73;4.53;;;3.60;99.90;;;;;;4921049;29;20198;-84
2022/02/05 01:18:47;;;;;;;4.50;4.20;;;5.30;99.90;;;;;;4914379;29;20242;-84
2022/02/05 01:21:34;;;;;;;4.13;3.70;;;3.60;99.90;;;;;;4941768;29;20673;-84
2022/02/05 01:24:04;;;;;;;4.03;3.75;;;3.80;99.90;;;;;;4938816;29;20179;-84
2022/02/05 01:26:42;;;;;;;3.90;3.70;;;3.70;99.90;;;;;;4942651;29;20222;-84
2022/02/05 01:29:28;;;;;;;3.92;3.50;;;3.70;99.90;;;;;;4920283;29;20311;-84
2022/02/05 01:31:57;;;;;;;5.20;3.60;;;3.20;99.90;;;;;;4929662;29;20234;-84
2022/02/05 01:34:34;;;;;;;6.18;4.43;;;3.70;99.90;;;;;;4933313;29;20188;-84
2022/02/05 02:12:37;;;;;;;6.60;4.88;;;6.00;99.90;;;;;;4922462;29;20291;-84
2022/02/05 02:15:13;;;;;;;3.60;3.30;;;4.30;99.90;;;;;;4938339;29;20261;-84
2022/02/05 02:21:08;;;;;;;5.18;3.70;;;3.80;99.90;;;;;;4950719;29;20186;-84
2022/02/05 02:23:18;;;;;;;6.28;3.33;;;3.80;99.90;;;;;;4934432;29;20199;-83
2022/02/05 02:28:39;;;;;;;3.92;3.22;;;3.60;99.90;;;;;;4940700;29;20224;-84
2022/02/05 02:31:10;;;;;;;4.28;4.07;;;3.70;99.90;;;;;;4939075;29;20288;-84
2022/02/05 02:33:41;;;;;;;4.50;4.10;;;4.30;99.90;;;;;;4924154;29;20592;-84
2022/02/05 02:36:33;;;;;;;4.05;3.70;;;3.50;99.90;;;;;;4939238;29;20202;-84
2022/02/05 02:39:05;;;;;;;4.13;3.83;;;3.70;99.90;;;;;;4938072;29;20667;-83
2022/02/05 02:41:40;;;;;;;7.45;3.65;;;5.60;99.90;;;;;;4919806;29;20720;-84
2022/02/05 02:44:05;;;;;;;4.30;3.28;;;3.30;99.90;;;;;;4929856;29;20171;-84
2022/02/05 02:46:31;;;;;;;3.87;3.53;;;3.30;99.90;;;;;;4946224;29;20265;-83
2022/02/05 02:48:59;;;;;;;5.87;3.57;;;;;;;;;;4930431;29;20454;-84
2022/02/05 02:57:01;;;;;;;3.08;2.97;;;4.40;99.90;;;;;;4928274;29;20708;-85
2022/02/05 02:59:37;;;;;;;4.70;3.67;;;3.40;99.90;;;;;;4929870;29;20258;-85
2022/02/05 03:02:11;;;;;;;3.30;2.95;;;3.70;99.90;;;;;;4941801;29;20202;-85
2022/02/05 03:04:37;;;;;;;4.85;3.67;;;3.90;99.90;;;;;;4930969;29;20178;-85
2022/02/05 03:07:04;;;;;;;9.03;3.67;;;3.80;99.90;;;;;;4924865;29;20203;-85
2022/02/05 03:09:30;;;;;;;6.93;3.55;;;4.00;99.90;;;;;;4939757;29;20241;-84
2022/02/05 03:11:56;;;;;;;4.50;3.77;;;3.80;99.90;;;;;;4933672;29;20195;-84
2022/02/05 03:14:21;;;;;;;2.60;2.40;;;3.90;99.90;;;;;;4939371;29;20190;-84
2022/02/05 03:16:51;;;;;;;2.53;2.43;;;3.90;99.90;;;;;;4935355;28;20286;-84
2022/02/05 03:19:34;;;;;;;3.80;2.53;;;4.00;99.90;;;;;;4938347;29;20335;-84
2022/02/05 03:22:29;;;;;;;4.82;3.28;;;4.20;99.90;;;;;;4939231;29;20569;-84
2022/02/05 03:24:55;;;;;;;7.53;3.05;;;4.50;99.90;;;;;;4927096;29;20224;-84
2022/02/05 03:27:21;;;;;;;8.93;3.37;;;4.10;99.90;;;;;;4918543;29;20259;-84
2022/02/05 03:29:49;;;;;;;10.32;3.45;;;4.10;99.90;;;;;;4914853;29;20481;-84
2022/02/05 03:32:16;;;;;;;9.32;4.00;;;3.90;99.90;;;;;;4911344;29;20235;-85
2022/02/05 03:34:42;;;;;;;3.45;2.45;;;4.10;99.90;;;;;;4929297;29;20214;-84
2022/02/05 03:37:08;;;;;;;3.70;2.88;;;3.40;99.90;;;;;;4914300;29;20334;-85
2022/02/05 03:39:34;;;;;;;4.28;2.88;;;3.90;99.90;;;;;;4922105;29;20187;-85
2022/02/05 03:42:01;;;;;;;5.70;2.70;;;4.00;99.90;;;;;;4929889;29;20214;-85
2022/02/05 03:44:27;;;;;;;4.07;3.15;;;3.90;99.90;;;;;;4937067;29;20277;-85
2022/02/05 03:46:54;;;;;;;3.00;2.40;;;3.80;99.90;;;;;;4930093;29;20218;-84
2022/02/05 03:49:21;;;;;;;3.65;3.42;;;5.10;99.90;;;;;;4937158;29;20234;-84
2022/02/05 03:51:49;;;;;;;5.05;3.35;;;4.10;99.90;;;;;;4911590;29;20203;-85
2022/02/05 03:54:18;;;;;;;4.95;3.83;;;3.90;99.90;;;;;;4932835;29;20194;-83
2022/02/05 03:56:43;;;;;;;2.92;2.72;;;5.30;99.90;;;;;;4935135;29;20198;-84
2022/02/05 03:59:09;;;;;;;3.93;2.47;;;4.20;99.90;;;;;;4929795;29;20187;-84
2022/02/05 04:01:35;;;;;;;3.53;3.03;;;3.90;99.90;;;;;;4915318;29;20306;-85
2022/02/05 04:04:00;;;;;;;2.80;2.60;;;4.10;99.90;;;;;;4940910;29;20194;-85
2022/02/05 04:06:26;;;;;;;3.03;2.57;;;4.10;99.90;;;;;;4936617;29;20188;-84
2022/02/05 04:08:55;;;;;;;3.83;2.10;;;4.10;99.90;;;;;;4911290;29;20230;-83
2022/02/05 04:11:34;;;;;;;6.35;3.47;;;4.00;99.90;;;;;;4921684;29;20557;-83
2022/02/05 04:16:47;;;;;;;8.35;3.05;;;4.10;99.90;;;;;;4942101;29;20197;-82
2022/02/05 04:19:13;;;;;;;7.57;3.53;;;4.10;99.90;;;;;;4923950;29;20683;-83
2022/02/05 04:21:39;;;;;;;5.17;3.20;;;3.60;99.90;;;;;;4927275;29;20201;-83
2022/02/05 04:24:05;;;;;;;4.10;2.60;;;4.00;99.90;;;;;;4915255;29;20435;-83
2022/02/05 04:26:31;;;;;;;3.05;2.10;;;3.70;99.90;;;;;;4926499;29;20447;-83
2022/02/05 04:28:57;;;;;;;3.75;3.00;;;3.60;99.90;;;;;;4943086;29;20222;-83
2022/02/05 04:31:23;;;;;;;3.83;2.83;;;3.80;99.90;;;;;;4923561;29;20182;-84
2022/02/05 04:33:49;;;;;;;4.33;2.10;;;3.90;99.90;;;;;;4933161;29;20635;-83
2022/02/05 04:36:16;;;;;;;4.47;2.70;;;4.00;99.90;;;;;;4913581;29;20430;-84
2022/02/05 04:38:44;;;;;;;3.60;2.22;;;4.20;99.90;;;;;;4933315;29;20163;-84
2022/02/05 04:41:16;;;;;;;7.15;2.67;;;4.20;99.90;;;;;;4938532;29;20201;-85
2022/02/05 04:44:07;;;;;;;11.25;2.65;;;3.80;99.90;;;;;;4935916;29;20175;-83
2022/02/05 05:08:43;;;;;;;2.35;2.10;;;4.00;99.90;;;;;;4942779;29;20204;-84
2022/02/05 05:21:58;;;;;;;3.95;2.10;;;4.60;99.90;;;;;;4936969;29;20195;-84
2022/02/05 05:24:23;;;;;;;4.35;2.03;;;4.10;99.90;;;;;;4941676;29;20187;-83
2022/02/05 05:26:49;;;;;;;1.83;1.73;;;4.20;99.90;;;;;;4935244;29;20585;-85
2022/02/05 05:29:15;;;;;;;1.97;1.83;;;4.60;99.90;;;;;;4928093;29;20242;-84
2022/02/05 05:31:41;;;;;;;3.50;3.20;;;3.90;99.90;;;;;;4939407;29;20945;-84
2022/02/05 05:34:06;;;;;;;2.20;1.77;;;3.70;99.90;;;;;;4938311;29;20199;-83
2022/02/05 05:36:32;;;;;;;2.13;1.83;;;4.40;99.90;;;;;;4929268;29;20552;-84
2022/02/05 05:39:01;;;;;;;5.20;2.57;;;3.60;99.90;;;;;;4943656;28;20274;-83
2022/02/05 05:41:27;;;;;;;3.78;2.20;;;3.50;99.90;;;;;;4946362;29;20877;-83
2022/02/05 05:46:31;;;;;;;2.60;2.40;;;3.20;99.90;;;;;;4937094;29;20219;-85
2022/02/05 05:49:10;;;;;;;3.90;2.53;;;3.50;99.90;;;;;;4924256;29;20793;-83
2022/02/05 05:51:37;;;;;;;5.10;2.33;;;3.80;99.90;;;;;;4917561;29;20247;-85
2022/02/05 05:54:03;;;;;;;2.63;2.53;;;3.50;99.90;;;;;;4917069;29;20625;-83
2022/02/05 05:56:29;;;;;;;5.73;3.20;;;3.60;99.90;;;;;;4936988;29;20406;-82
2022/02/05 05:58:55;;;;;;;3.30;3.00;;;3.60;99.90;;;;;;4946824;29;20187;-83
2022/02/05 06:01:20;;;;;;;4.03;2.03;;;5.00;99.90;;;;;;4938111;29;20457;-83
2022/02/05 06:03:46;;;;;;;2.80;2.60;;;3.90;99.90;;;;;;4933331;29;20429;-83
2022/02/05 06:06:11;;;;;;;4.23;2.50;;;4.00;99.90;;;;;;4920320;29;20195;-84
2022/02/05 06:08:37;;;;;;;8.20;2.90;;;3.60;99.90;;;;;;4930763;29;20293;-84
2022/02/05 06:11:03;;;;;;;8.50;2.67;;;3.90;99.90;;;;;;4930862;29;20266;-84
2022/02/05 06:13:29;;;;;;;5.40;2.60;;;3.20;99.90;;;;;;4923890;29;20266;-83
2022/02/05 06:15:57;;;;;;;5.82;3.63;;;3.90;99.90;;;;;;4939952;29;20198;-83
2022/02/05 06:18:22;;;;;;;8.25;3.03;;;5.40;99.90;;;;;;4931994;29;20638;-83
2022/02/05 06:20:48;;;;;;;2.70;2.43;;;4.00;99.90;;;;;;4940011;29;20190;-83
2022/02/05 06:23:14;;;;;;;7.73;2.60;;;3.90;99.90;;;;;;4232676;29;10000750;-83
2022/02/05 06:25:41;;;;;;;3.80;3.40;;;3.90;99.90;;;;;;4929807;29;20291;-84
2022/02/05 06:28:10;;;;;;;4.47;4.18;;;3.80;99.90;;;;;;4913452;29;20219;-84
2022/02/05 06:30:36;;;;;;;4.43;2.47;;;3.80;99.90;;;;;;4916596;29;20194;-84
2022/02/05 06:33:02;;;;;;;5.38;3.25;;;3.60;99.90;;;;;;4915955;29;20198;-86
2022/02/05 06:35:28;;;;;;;3.25;2.75;;;3.90;99.90;;;;;;4919088;29;20202;-84
2022/02/05 06:37:53;;;;;;;2.90;2.43;;;3.90;99.90;;;;;;4929819;29;20207;-84
2022/02/05 06:40:19;;;;;;;6.23;3.40;;;3.80;99.90;;;;;;4943226;29;20648;-83
2022/02/05 06:42:46;;;;;;;3.33;3.00;;;4.00;99.90;;;;;;4918154;29;20644;-84
2022/02/05 06:45:13;;;;;;;6.78;2.95;;;4.20;99.90;;;;;;4913779;29;20207;-84
2022/02/05 06:47:38;;;;;;;3.95;3.30;;;3.90;99.90;;;;;;4918279;29;20221;-84
2022/02/05 06:50:04;;;;;;;2.40;2.20;;;3.90;99.90;;;;;;4922543;28;20309;-83
2022/02/05 06:52:30;;;;;;;6.88;3.08;;;4.10;99.90;;;;;;4933300;29;20211;-84
2022/02/05 06:54:56;;;;;;;5.33;2.50;;;4.10;99.90;;;;;;4927424;29;20662;-85
2022/02/05 06:57:21;;;;;;;3.97;2.47;;;4.00;99.90;;;;;;4931489;29;20629;-85
2022/02/05 06:59:47;;;;;;;3.30;3.10;;;4.00;99.90;;;;;;4939862;29;20645;-85
2022/02/05 07:02:13;;;;;;;6.13;2.23;;;4.30;99.90;;;;;;4923012;29;20203;-85
2022/02/05 07:04:38;;;;;;;3.13;2.70;;;3.90;99.90;;;;;;4947988;29;20202;-85
2022/02/05 07:07:04;;;;;;;4.17;2.43;;;4.00;99.90;;;;;;4944976;29;20214;-85
2022/02/05 07:09:39;;;;;;;4.87;3.17;;;4.20;99.90;;;;;;4930987;29;20213;-85
2022/02/05 07:12:09;;;;;;;2.75;2.53;;;5.10;99.90;;;;;;4927782;29;20470;-83
2022/02/05 07:15:03;;;;;;;6.40;3.10;;;4.00;99.90;;;;;;4940310;29;20295;-84
2022/02/05 07:17:32;;;;;;;5.13;2.78;;;4.90;99.90;;;;;;4936288;29;20226;-83
2022/02/05 07:22:28;;;;;;;6.20;3.13;;;5.90;99.90;;;;;;4934653;29;20176;-84
2022/02/05 07:29:13;;;;;;;3.90;3.10;;;4.40;99.90;;;;;;4920382;29;20195;-83
2022/02/05 07:30:24;;;;;;;3.15;2.85;;;4.00;99.90;;;;;;4937738;29;20577;-83
2022/02/05 07:32:49;;;;;;;3.40;3.13;;;3.90;99.90;;;;;;4924644;29;20179;-82
2022/02/05 07:35:15;;;;;;;5.93;3.20;;;4.00;99.90;;;;;;4938008;29;20207;-84
2022/02/05 07:37:41;;;;;;;2.70;2.50;;;4.00;99.90;;;;;;4928919;29;20538;-84
2022/02/05 07:40:07;;;;;;;7.80;2.30;;;3.90;99.90;;;;;;4943401;29;20204;-85
2022/02/05 07:42:32;;;;;;;2.97;2.80;;;4.20;99.90;;;;;;4926278;29;20182;-85
2022/02/05 07:44:58;;;;;;;4.17;2.73;;;4.20;99.90;;;;;;4943742;29;20560;-85
2022/02/05 07:47:25;;;;;;;3.37;3.03;;;3.70;99.90;;;;;;4927618;29;20218;-85
2022/02/05 07:49:51;;;;;;;3.08;1.80;;;4.00;99.90;;;;;;4927834;29;20687;-85
2022/02/05 07:52:17;;;;;;;8.37;2.90;;;3.90;99.90;;;;;;4947921;29;20186;-85
2022/02/05 07:54:43;;;;;;;5.83;2.83;;;3.60;99.90;;;;;;4920965;29;20522;-85
2022/02/05 07:57:08;;;;;;;7.33;2.80;;;4.20;99.90;;;;;;4941695;29;20183;-84
2022/02/05 07:59:34;;;;;;;5.50;3.07;;;4.30;99.90;;;;;;4933123;29;20919;-84
2022/02/05 08:01:59;;;;;;;5.13;2.17;;;4.00;99.90;;;;;;4921028;29;20625;-84
2022/02/05 08:04:25;;;;;;;2.87;2.43;;;4.30;99.90;;;;;;4935273;29;20290;-85
2022/02/05 08:06:51;;;;;;;2.60;2.33;;;4.20;99.90;;;;;;4928659;29;20176;-84
2022/02/05 08:09:40;;;;;;;5.25;2.95;;;4.00;99.90;;;;;;4927492;29;20306;-85
2022/02/05 08:12:08;;;;;;;4.07;3.45;;;3.90;99.90;;;;;;4928051;29;20183;-84
2022/02/05 08:14:36;;;;;;;5.97;2.80;;;4.30;99.90;;;;;;4924023;29;21136;-85
2022/02/05 08:17:08;;;;;;;5.75;3.58;;;4.20;99.90;;;;;;4938426;29;20237;-84
2022/02/05 08:19:34;;;;;;;5.18;2.13;;;4.20;99.90;;;;;;4929902;29;20202;-84
2022/02/05 08:21:59;;;;;;;6.63;2.83;;;4.10;99.90;;;;;;4919018;29;20298;-84
2022/02/05 08:24:25;;;;;;;9.30;3.40;;;4.20;99.90;;;;;;4912543;29;20457;-84
2022/02/05 08:26:50;;;;;;;8.13;3.13;;;3.70;99.90;;;;;;4239365;29;10000712;-84
2022/02/05 08:29:18;;;;;;;4.70;2.00;;;4.10;99.90;;;;;;4918575;29;20585;-86
2022/02/05 08:31:44;;;;;;;10.80;2.92;;;3.90;99.90;;;;;;4929063;29;20564;-84
2022/02/05 08:34:09;;;;;;;5.90;3.00;;;4.10;99.90;;;;;;4940915;29;20190;-85
2022/02/05 08:36:46;;;;;;;5.93;2.30;;;3.80;99.90;;;;;;4929579;29;20199;-84
2022/02/05 08:39:14;;;;;;;2.88;2.47;;;3.90;99.90;;;;;;4930056;29;20178;-85
2022/02/05 08:41:40;;;;;;;5.53;2.38;;;3.80;99.90;;;;;;4913679;29;20207;-84
2022/02/05 08:44:07;;;;;;;3.65;2.53;;;4.40;99.90;;;;;;4918603;29;20189;-85
2022/02/05 08:46:33;;;;;;;5.93;3.03;;;4.10;99.90;;;;;;4912796;29;20321;-84
2022/02/05 08:48:59;;;;;;;5.75;2.70;;;4.90;99.90;;;;;;4935616;29;20264;-86
2022/02/05 08:51:35;;;;;;;3.93;2.23;;;3.80;99.90;;;;;;4906460;29;20203;-84
2022/02/05 08:54:01;;;;;;;7.95;2.90;;;5.50;99.90;;;;;;4935766;29;20243;-87
2022/02/05 08:56:27;;;;;;;5.20;2.73;;;4.40;99.90;;;;;;4927684;29;20680;-83
2022/02/05 08:58:55;;;;;;;4.00;2.95;;;4.40;99.90;;;;;;4924670;29;20939;-83
2022/02/05 09:01:30;;;;;;;4.85;2.70;;;3.90;99.90;;;;;;4939385;29;20500;-81
2022/02/05 09:04:03;;;;;;;2.88;2.67;;;4.60;99.90;;;;;;4929899;29;20595;-82
2022/02/05 09:06:33;;;;;;;2.30;2.20;;;4.90;99.90;;;;;;4929609;29;20252;-82
2022/02/05 09:09:09;;;;;;;13.55;3.42;;;6.90;99.90;;;;;;4931392;29;20207;-83
2022/02/05 09:11:57;;;;;;;6.63;2.97;;;5.10;99.90;;;;;;4923356;29;20213;-83
2022/02/05 09:16:51;;;;;;;7.03;3.17;;;4.80;99.90;;;;;;4934730;29;20198;-83
2022/02/05 09:19:58;;;;;;;3.53;3.00;;;4.80;99.90;;;;;;4933616;29;20698;-83
2022/02/05 09:22:27;;;;;;;2.85;2.70;;;5.10;99.90;;;;;;4919251;29;20442;-83
2022/02/05 09:24:57;;;;;;;10.00;4.03;;;5.00;99.90;;;;;;4951680;29;20499;-85
2022/02/05 09:27:23;;;;;;;3.05;2.85;;;5.50;99.90;;;;;;4912389;29;20199;-81
2022/02/05 09:30:02;;;;;;;7.07;2.83;;;5.20;99.90;;;;;;4931622;29;20248;-82
2022/02/05 09:32:27;;;;;;;4.20;3.33;;;4.40;99.90;;;;;;4933590;29;20187;-80
2022/02/05 09:34:53;;;;;;;1.87;1.87;;;5.00;99.90;;;;;;4949649;29;20186;-80
2022/02/05 09:37:20;;;;;;;3.70;2.78;;;5.60;99.90;;;;;;4929040;29;20247;-80
2022/02/05 09:39:46;;;;;;;6.43;3.10;;;4.80;99.90;;;;;;4949586;29;20245;-81
2022/02/05 09:42:13;;;;;;;3.53;2.63;;;5.00;99.90;;;;;;4930047;29;20207;-80
2022/02/05 09:44:38;;;;;;;5.38;3.50;;;5.40;99.90;;;;;;4949383;29;20727;-80
2022/02/05 09:47:04;;;;;;;3.30;2.80;;;6.00;99.90;;;;;;4939150;29;20266;-82
2022/02/05 09:49:30;;;;;;;5.20;2.78;;;5.60;99.90;;;;;;4931483;29;20219;-81
2022/02/05 09:52:12;;;;;;;8.13;3.17;;;5.10;99.90;;;;;;4947192;29;20199;-80
2022/02/05 09:54:40;;;;;;;5.93;3.05;;;5.60;99.90;;;;;;4933371;29;20213;-80
2022/02/05 09:57:06;;;;;;;10.75;3.25;;;7.70;99.90;;;;;;4921570;29;20286;-81
2022/02/05 09:59:46;;;;;;;7.60;3.40;;;6.00;99.90;;;;;;4930836;29;20191;-81
2022/02/05 10:02:19;;;;;;;4.75;3.58;;;5.80;99.90;;;;;;4929624;29;20222;-82
2022/02/05 10:04:57;;;;;;;4.40;2.92;;;6.20;99.90;;;;;;4948943;29;20237;-82
2022/02/05 10:07:23;;;;;;;5.07;3.40;;;6.20;99.90;;;;;;4928263;29;20756;-81
2022/02/05 10:09:57;;;;;;;10.40;2.95;;;6.40;99.90;;;;;;4948448;29;20907;-81
2022/02/05 10:12:23;;;;;;;5.60;3.72;;;5.70;99.90;;;;;;4927995;29;20195;-80
2022/02/05 10:14:55;;;;;;;5.70;2.90;;;5.80;99.90;;;;;;4948517;29;20201;-80
2022/02/05 10:17:43;;;;;;;4.78;4.22;;;5.90;99.90;;;;;;4927903;29;20443;-85
2022/02/05 10:20:10;;;;;;;11.65;3.08;;;6.00;99.90;;;;;;4929845;29;20290;-81
2022/02/05 10:22:44;;;;;;;5.82;2.55;;;6.10;99.90;;;;;;4924273;29;20281;-81
2022/02/05 10:25:29;;;;;;;7.65;2.80;;;6.70;99.90;;;;;;4911910;29;20665;-81
2022/02/05 10:27:55;;;;;;;4.65;2.78;;;7.30;99.90;;;;;;4944936;29;20622;-82
2022/02/05 10:30:25;;;;;;;4.72;3.30;;;6.70;99.90;;;;;;4931129;29;20274;-81
2022/02/05 10:33:09;;;;;;;4.32;3.75;;;8.00;99.90;;;;;;4923085;29;20218;-81
2022/02/05 10:36:11;;;;;;;4.00;3.73;;;7.60;99.90;;;;;;4928312;29;20634;-82
2022/02/05 10:44:09;;;;;;;7.40;3.30;;;9.60;99.90;;;;;;4927325;29;20790;-81
2022/02/05 10:46:42;;;;;;;3.77;3.03;;;8.60;99.90;;;;;;4929062;29;20283;-80
2022/02/05 10:49:08;;;;;;;2.28;2.22;;;9.90;99.90;;;;;;4933965;29;20513;-82
2022/02/05 10:51:43;;;;;;;6.60;2.95;;;8.20;99.90;;;;;;4941065;29;20175;-80
2022/02/05 10:54:19;;;;;;;2.08;1.30;;;7.80;99.90;;;;;;4933455;29;20288;-81
2022/02/05 10:57:18;;;;;;;6.68;2.47;;;7.80;99.90;;;;;;4932602;29;20218;-86
2022/02/05 11:05:50;;;;;;;3.90;2.72;;;9.10;99.90;;;;;;4945899;29;20925;-80
2022/02/05 11:08:18;;;;;;;9.68;3.60;;;7.20;99.90;;;;;;4909289;29;20527;-80
2022/02/05 11:21:15;;;;;;;4.67;2.80;;;9.10;99.90;;;;;;4943842;29;20199;-85
2022/02/05 11:23:53;;;;;;;2.77;2.57;;;9.50;99.90;;;;;;4916361;29;20431;-86
2022/02/05 11:26:23;;;;;;;6.13;3.10;;;9.60;99.90;;;;;;4933173;29;20457;-84
2022/02/05 11:29:07;;;;;;;6.63;3.80;;;9.90;99.90;;;;;;4929987;29;20509;-84
2022/02/05 11:31:38;;;;;;;4.97;2.23;;;9.90;99.90;;;;;;4920227;29;20541;-84
2022/02/05 11:34:28;;;;;;;7.90;3.05;;;9.30;99.90;;;;;;4926979;29;20419;-85
2022/02/05 11:37:05;;;;;;;8.95;3.20;;;8.40;99.90;;;;;;4909258;29;20195;-82
2022/02/05 11:39:48;;;;;;;2.80;2.60;;;8.60;99.90;;;;;;4945520;29;20265;-85
2022/02/05 11:42:29;;;;;;;6.20;3.37;;;9.60;99.90;;;;;;4922673;29;20226;-84
2022/02/05 11:44:57;;;;;;;1.93;1.87;;;10.70;99.90;;;;;;4947351;29;20450;-85
2022/02/05 11:47:25;;;;;;;1.90;1.60;;;10.40;99.90;;;;;;4913063;29;20462;-85
2022/02/05 11:49:55;;;;;;;6.30;3.40;;;9.40;99.90;;;;;;4948784;29;20959;-84
2022/02/05 11:52:44;;;;;;;3.90;2.65;;;8.60;99.90;;;;;;4911567;29;20836;-84
2022/02/05 11:55:13;;;;;;;7.03;3.08;;;8.40;99.90;;;;;;4909100;29;20729;-85
2022/02/05 11:57:45;;;;;;;6.55;2.65;;;7.00;99.90;;;;;;4912981;29;20226;-84
2022/02/05 12:00:19;;;;;;;4.20;2.67;;;7.40;99.90;;;;;;4938213;29;20191;-83
2022/02/05 12:03:00;;;;;;;5.65;3.13;;;7.70;99.90;;;;;;4930054;29;20178;-85
2022/02/05 12:05:36;;;;;;;3.05;2.72;;;7.50;99.90;;;;;;4928632;29;20250;-84
2022/02/05 12:08:05;;;;;;;5.97;2.75;;;7.10;99.90;;;;;;4931098;29;20226;-85
2022/02/05 12:10:37;;;;;;;7.82;2.65;;;6.90;99.90;;;;;;4913459;29;20194;-85
2022/02/05 12:13:16;;;;;;;5.25;2.65;;;7.30;99.90;;;;;;4931223;29;20182;-85
2022/02/05 12:16:10;;;;;;;1.65;1.55;;;7.40;99.90;;;;;;4930111;29;20665;-85
2022/02/05 12:18:57;;;;;;;2.58;2.20;;;7.10;99.90;;;;;;4930186;29;20182;-85
2022/02/05 12:21:28;;;;;;;2.85;2.38;;;7.40;99.90;;;;;;4936465;29;20185;-84
2022/02/05 12:26:30;;;;;;;15.70;4.27;;;7.30;99.90;;;;;;4952205;29;20190;-85
2022/02/05 12:29:01;;;;;;;5.18;3.17;;;7.60;99.90;;;;;;4931984;29;20764;-87
2022/02/05 12:31:30;;;;;;;2.90;2.30;;;7.40;99.90;;;;;;4945304;29;20222;-86
2022/02/05 12:34:12;;;;;;;5.10;2.58;;;7.70;99.90;;;;;;4915462;29;20206;-88
2022/02/05 12:36:50;;;;;;;4.95;3.22;;;8.10;99.90;;;;;;4923499;29;20278;-85
2022/02/05 12:39:27;;;;;;;4.55;2.53;;;8.00;99.90;;;;;;4932090;29;20265;-86
2022/02/05 12:42:04;;;;;;;3.03;2.40;;;8.00;99.90;;;;;;4931471;29;20190;-86
2022/02/05 12:44:31;;;;;;;1.40;1.30;;;8.00;99.90;;;;;;4914335;29;20199;-88
2022/02/05 12:47:09;;;;;;;8.07;4.43;;;7.80;99.90;;;;;;4931927;29;20697;-87
2022/02/05 12:52:09;;;;;;;2.87;2.30;;;6.10;99.90;;;;;;4952529;29;20185;-88
2022/02/05 12:54:46;;;;;;;5.28;3.10;;;10.00;99.90;;;;;;4921620;29;20205;-87
2022/02/05 12:57:16;;;;;;;4.35;2.60;;;12.80;99.90;;;;;;4916770;29;20560;-87
2022/02/05 13:00:01;;;;;;;4.72;2.40;;;8.60;99.90;;;;;;4942289;29;20258;-85
2022/02/05 13:02:27;;;;;;;1.55;1.40;;;8.60;99.90;;;;;;4239079;29;10022464;-88
2022/02/05 13:05:02;;;;;;;2.20;2.00;;;7.20;99.90;;;;;;4935342;29;20254;-85
2022/02/05 13:07:49;;;;;;;2.17;1.77;;;7.50;99.90;;;;;;4938043;29;20171;-86
2022/02/05 13:10:15;;;;;;;3.05;2.20;;;8.90;99.90;;;;;;4933313;29;20301;-87
2022/02/05 13:12:51;;;;;;;3.70;3.50;;;8.50;99.90;;;;;;4926647;29;20191;-86
2022/02/05 13:15:26;;;;;;;6.25;2.25;;;7.20;99.90;;;;;;4931780;29;20538;-87
2022/02/05 13:34:14;;;;;;;4.03;2.05;;;7.90;99.90;;;;;;4951408;29;20189;-86
2022/02/05 13:36:49;;;;;;;4.72;2.25;;;8.10;99.90;;;;;;4931545;29;20278;-85
2022/02/05 13:42:09;;;;;;;9.18;2.10;;;7.80;99.90;;;;;;4940001;29;20428;-84
2022/02/05 13:45:10;;;;;;;8.88;2.22;;;8.00;99.90;;;;;;4934473;29;20623;-85
2022/02/05 13:47:45;;;;;;;1.80;1.73;;;7.90;99.90;;;;;;4920376;29;20257;-83
2022/02/05 13:50:25;;;;;;;2.50;2.30;;;7.40;99.90;;;;;;4934345;29;20688;-82
2022/02/05 13:53:13;;;;;;;3.13;2.20;;;7.60;99.90;;;;;;4945264;29;20206;-82
2022/02/05 13:55:41;;;;;;;3.63;2.83;;;8.50;99.90;;;;;;4933349;29;20193;-83
2022/02/05 13:58:16;;;;;;;7.40;2.00;;;11.00;99.90;;;;;;4917323;29;20195;-81
2022/02/05 14:00:43;;;;;;;5.22;2.97;;;8.70;99.90;;;;;;4920411;29;20177;-83
2022/02/05 14:03:54;;;;;;;2.20;2.10;;;9.60;99.90;;;;;;4916151;29;20294;-83
2022/02/05 14:06:20;;;;;;;2.38;2.05;;;8.80;99.90;;;;;;4923704;29;20206;-83
2022/02/05 14:08:51;;;;;;;2.20;2.00;;;8.50;99.90;;;;;;4922365;29;20219;-82
2022/02/05 14:11:27;;;;;;;2.15;1.52;;;8.50;99.90;;;;;;4935072;29;20191;-81
2022/02/05 14:14:13;;;;;;;1.67;1.58;;;9.60;99.90;;;;;;4939639;29;20171;-84
2022/02/05 14:16:40;;;;;;;2.00;1.90;;;11.80;99.90;;;;;;4938005;29;20245;-82
2022/02/05 14:19:07;;;;;;;2.37;1.80;;;11.60;99.90;;;;;;4914037;29;20183;-82
2022/02/05 14:21:45;;;;;;;1.45;1.35;;;7.30;99.90;;;;;;4915120;29;20841;-84
2022/02/05 14:24:41;;;;;;;2.13;1.85;;;6.40;99.90;;;;;;4934081;29;20276;-82
2022/02/05 14:27:11;;;;;;;1.05;1.05;;;8.10;99.90;;;;;;4941836;29;20179;-82
2022/02/05 14:29:59;;;;;;;4.15;1.60;;;8.60;99.90;;;;;;4944158;29;20302;-81
2022/02/05 14:32:52;;;;;;;2.17;2.05;;;6.50;99.90;;;;;;4937169;29;20425;-81
2022/02/05 14:40:47;;;;;;;3.38;2.20;;;8.10;99.90;;;;;;4931259;29;20297;-82
2022/02/05 14:43:28;;;;;;;3.60;2.10;;;10.20;99.90;;;;;;4928210;29;20253;-82
2022/02/05 14:45:54;;;;;;;3.83;2.00;;;7.40;99.90;;;;;;4928728;29;20234;-80
2022/02/05 14:48:20;;;;;;;1.67;1.10;;;8.00;99.90;;;;;;4934900;29;20259;-82
2022/02/05 14:50:50;;;;;;;3.43;1.80;;;7.60;99.90;;;;;;4923713;29;20274;-81
2022/02/05 14:53:18;;;;;;;2.35;2.25;;;7.80;99.90;;;;;;4914451;29;20195;-84
2022/02/05 14:55:49;;;;;;;3.33;2.10;;;7.80;99.90;;;;;;4911444;29;20215;-84
2022/02/05 14:58:21;;;;;;;1.50;1.50;;;8.70;99.90;;;;;;4927430;29;20621;-83
2022/02/05 15:00:48;;;;;;;2.45;2.22;;;8.00;99.90;;;;;;4934960;29;20207;-81
2022/02/05 15:03:18;;;;;;;3.45;2.03;;;8.60;99.90;;;;;;4931344;29;20216;-82
2022/02/05 15:05:46;;;;;;;4.50;2.90;;;9.70;99.90;;;;;;4917885;29;20199;-85
2022/02/05 15:08:12;;;;;;;5.75;2.10;;;7.70;99.90;;;;;;4913096;29;20250;-85
2022/02/05 15:10:40;;;;;;;6.33;3.03;;;7.60;99.90;;;;;;4947879;29;20198;-85
2022/02/05 15:13:08;;;;;;;6.47;3.55;;;10.40;99.90;;;;;;4950901;28;20780;-83
2022/02/05 15:15:36;;;;;;;2.67;2.17;;;9.30;99.90;;;;;;4938292;29;20294;-84
2022/02/05 15:18:03;;;;;;;6.07;2.60;;;7.90;99.90;;;;;;4926702;29;20638;-84
2022/02/05 15:20:29;;;;;;;2.20;2.10;;;7.60;99.90;;;;;;4927291;29;20198;-83
2022/02/05 15:22:55;;;;;;;2.20;2.00;;;7.50;99.90;;;;;;4932518;29;20175;-83
2022/02/05 15:25:20;;;;;;;2.57;1.60;;;7.00;99.90;;;;;;4919348;29;20190;-83
2022/02/05 15:27:46;;;;;;;2.83;2.20;;;10.30;99.90;;;;;;4930262;29;20684;-83
2022/02/05 15:30:13;;;;;;;8.27;2.60;;;7.30;99.90;;;;;;4938159;29;20214;-84
2022/02/05 15:32:40;;;;;;;1.33;1.33;;;7.60;99.90;;;;;;4937507;29;20412;-80
2022/02/05 15:35:08;;;;;;;1.80;1.67;;;7.60;99.90;;;;;;4940413;29;20551;-82
2022/02/05 15:37:33;;;;;;;1.15;1.15;;;7.50;99.90;;;;;;4926483;29;20605;-83
2022/02/05 15:45:15;;;;;;;2.23;1.90;;;7.50;99.90;;;;;;4575700;29;9999939;-85
2022/02/05 15:47:41;;;;;;;2.00;1.90;;;7.90;99.90;;;;;;4930371;29;20238;-84
2022/02/05 15:50:11;;;;;;;2.22;2.13;;;9.30;99.90;;;;;;4929522;29;20227;-83
2022/02/05 15:52:37;;;;;;;4.28;2.10;;;7.50;99.90;;;;;;4919563;29;20198;-84
2022/02/05 15:55:03;;;;;;;4.57;2.03;;;7.50;99.90;;;;;;4940761;29;20203;-87
2022/02/05 16:00:27;;;;;;;4.43;2.15;;;7.30;99.90;;;;;;4918489;29;20215;-84
2022/02/05 16:02:57;;;;;;;1.20;0.90;;;7.50;99.90;;;;;;4908736;29;20191;-84
2022/02/05 16:05:23;;;;;;;2.60;1.30;;;6.80;99.90;;;;;;4925247;29;20302;-85
2022/02/05 16:07:49;;;;;;;3.37;1.60;;;;;;;;;;4925677;29;20258;-85
2022/02/05 16:10:15;;;;;;;0.93;0.93;;;7.40;99.90;;;;;;4935555;29;20226;-84
2022/02/05 16:12:44;;;;;;;1.90;1.80;;;9.40;99.90;;;;;;4946686;29;20938;-84
2022/02/05 16:15:10;;;;;;;4.35;1.83;;;7.40;99.90;;;;;;4929352;29;20190;-85
2022/02/05 16:17:35;;;;;;;1.57;1.47;;;10.20;99.90;;;;;;4944820;29;20582;-85
2022/02/05 16:20:01;;;;;;;3.03;1.30;;;7.60;99.90;;;;;;4924729;29;20209;-85
2022/02/05 16:22:27;;;;;;;3.33;2.53;;;7.40;99.90;;;;;;4908517;29;20175;-85
2022/02/05 16:24:52;;;;;;;2.00;1.80;;;7.30;99.90;;;;;;4925443;29;20649;-84
2022/02/05 16:27:18;;;;;;;4.50;1.83;;;7.40;99.90;;;;;;4932442;29;20720;-84